createdAt,value
2018-07-03T06:51:18.512Z,23.95
2018-07-03T06:53:46.146Z,24.10
2018-07-03T06:56:13.827Z,24.13
2018-07-03T06:58:41.473Z,24.22
2018-07-03T07:01:09.118Z,24.17
2018-07-03T07:03:36.761Z,24.41
2018-07-03T07:06:04.444Z,24.58
2018-07-03T07:08:32.177Z,24.69
2018-07-03T07:10:59.735Z,25.23
2018-07-03T07:13:27.376Z,25.55
2018-07-03T07:15:55.072Z,25.88
2018-07-03T07:18:22.715Z,26.23
2018-07-03T07:20:50.357Z,26.47
2018-07-03T07:23:18.035Z,26.60
2018-07-03T07:25:45.692Z,26.79
2018-07-03T07:28:13.366Z,26.86
2018-07-03T07:30:41.023Z,26.78
2018-07-03T07:33:08.676Z,26.94
2018-07-03T07:35:36.320Z,26.95
2018-07-03T07:38:04.212Z,27.17
2018-07-03T07:40:31.866Z,27.11
2018-07-03T07:42:59.487Z,27.23
2018-07-03T07:45:27.123Z,27.27
2018-07-03T07:47:54.775Z,27.34
2018-07-03T07:50:22.379Z,27.14
2018-07-03T07:52:50.048Z,27.37
2018-07-03T07:55:17.659Z,27.69
2018-07-03T07:57:45.280Z,27.77
2018-07-03T08:00:13.301Z,27.82
2018-07-03T08:02:40.879Z,27.83
2018-07-03T08:05:08.531Z,27.25
2018-07-03T08:07:36.167Z,26.60
2018-07-03T08:10:04.107Z,26.90
2018-07-03T08:12:31.786Z,27.04
2018-07-03T08:14:59.415Z,27.17
2018-07-03T08:17:27.001Z,26.99
2018-07-03T08:19:54.586Z,27.06
2018-07-03T08:22:22.199Z,26.80
2018-07-03T08:24:49.784Z,26.51
2018-07-03T08:27:17.413Z,26.31
2018-07-03T08:29:45.031Z,26.36
2018-07-03T08:32:12.666Z,26.30
2018-07-03T08:34:40.322Z,26.22
2018-07-03T08:37:07.918Z,26.45
2018-07-03T08:39:35.534Z,26.03
2018-07-03T08:42:03.172Z,26.13
2018-07-03T08:44:30.787Z,25.96
2018-07-03T08:46:58.413Z,25.91
2018-07-03T08:49:26.032Z,25.96
2018-07-03T08:51:53.690Z,26.02
2018-07-03T08:54:21.224Z,25.78
2018-07-03T08:56:48.825Z,25.80
2018-07-03T08:59:16.413Z,25.90
2018-07-03T09:03:12.415Z,25.76
2018-07-03T09:05:40.077Z,25.73
2018-07-03T09:08:07.748Z,25.64
2018-07-03T09:10:35.447Z,25.75
2018-07-03T09:13:03.123Z,25.71
2018-07-03T09:15:30.792Z,25.89
2018-07-03T09:17:58.528Z,26.05
2018-07-03T09:20:26.140Z,26.07
2018-07-03T09:22:53.900Z,26.23
2018-07-03T09:25:21.530Z,26.04
2018-07-03T09:27:49.166Z,26.03
2018-07-03T09:30:16.823Z,26.24
2018-07-03T09:32:44.456Z,26.40
2018-07-03T09:35:12.120Z,26.58
2018-07-03T09:37:39.777Z,26.82
2018-07-03T09:40:07.436Z,26.97
2018-07-03T09:42:35.123Z,27.18
2018-07-03T09:45:03.104Z,27.39
2018-07-03T09:47:30.743Z,27.63
2018-07-03T09:49:58.374Z,27.98
2018-07-03T09:52:26.032Z,28.09
2018-07-03T09:54:53.716Z,28.55
2018-07-03T09:57:21.380Z,28.25
2018-07-03T09:59:49.107Z,28.15
2018-07-03T10:02:16.768Z,28.50
2018-07-03T10:04:44.420Z,28.47
2018-07-03T10:07:12.074Z,28.78
2018-07-03T10:09:39.711Z,29.17
2018-07-03T10:12:07.399Z,29.21
2018-07-03T10:14:35.349Z,29.23
2018-07-03T10:17:03.010Z,29.58
2018-07-03T10:19:30.699Z,29.26
2018-07-03T10:21:58.354Z,29.47
2018-07-03T10:24:25.989Z,29.90
2018-07-03T10:26:53.864Z,30.05
2018-07-03T10:29:21.526Z,30.19
2018-07-03T10:31:49.171Z,30.61
2018-07-03T10:34:16.894Z,30.38
2018-07-03T10:36:44.588Z,30.24
2018-07-03T10:39:12.600Z,30.20
2018-07-03T10:41:40.446Z,30.37
2018-07-03T10:44:08.095Z,30.54
2018-07-03T10:46:35.764Z,30.51
2018-07-03T10:49:03.635Z,30.43
2018-07-03T10:51:31.268Z,30.55
2018-07-03T10:53:58.968Z,30.47
2018-07-03T10:56:26.706Z,30.20
2018-07-03T10:58:54.687Z,30.38
2018-07-03T11:01:22.435Z,30.43
2018-07-03T11:03:50.326Z,30.64
2018-07-03T11:06:17.984Z,30.76
2018-07-03T11:08:45.697Z,30.49
2018-07-03T11:11:13.409Z,30.14
2018-07-03T11:13:41.126Z,30.51
2018-07-03T11:16:08.792Z,30.82
2018-07-03T11:18:36.430Z,30.59
2018-07-03T11:21:04.123Z,30.81
2018-07-03T11:23:31.851Z,30.93
2018-07-03T11:25:59.544Z,30.97
2018-07-03T11:28:27.371Z,30.89
2018-07-03T11:30:55.036Z,30.62
2018-07-03T11:33:22.712Z,30.60
2018-07-03T11:35:50.460Z,30.64
2018-07-03T11:38:18.168Z,30.04
2018-07-03T11:40:45.866Z,30.37
2018-07-03T11:43:13.584Z,30.69
2018-07-03T11:45:41.279Z,30.87
2018-07-03T11:48:08.975Z,30.76
2018-07-03T11:50:36.627Z,30.94
2018-07-03T11:53:04.355Z,31.11
2018-07-03T11:55:32.104Z,31.36
2018-07-03T11:57:59.783Z,31.74
2018-07-03T12:00:27.515Z,31.65
2018-07-03T12:02:55.167Z,31.40
2018-07-03T12:05:22.800Z,31.44
2018-07-03T12:07:50.567Z,31.86
2018-07-03T12:10:33.650Z,31.97
2018-07-03T12:13:01.348Z,32.22
2018-07-03T12:15:29.075Z,32.64
2018-07-03T12:17:56.747Z,32.65
2018-07-03T12:20:24.391Z,32.24
2018-07-03T12:22:52.564Z,32.87
2018-07-03T12:25:20.317Z,33.19
2018-07-03T12:27:48.112Z,33.14
2018-07-03T12:30:15.796Z,33.44
2018-07-03T12:32:43.454Z,33.40
2018-07-03T12:35:11.236Z,33.24
2018-07-03T12:37:38.951Z,33.45
2018-07-03T12:40:06.633Z,33.51
2018-07-03T12:42:34.519Z,32.95
2018-07-03T12:45:02.600Z,32.82
2018-07-03T12:47:30.363Z,32.92
2018-07-03T12:49:58.012Z,32.79
2018-07-03T12:52:25.688Z,33.03
2018-07-03T12:54:53.346Z,33.17
2018-07-03T12:57:21.205Z,33.10
2018-07-03T12:59:48.895Z,33.22
2018-07-03T13:02:17.420Z,33.83
2018-07-03T13:04:45.271Z,33.76
2018-07-03T13:07:12.926Z,33.47
2018-07-03T13:09:41.059Z,33.43
2018-07-03T13:12:08.815Z,33.25
2018-07-03T13:14:36.732Z,32.73
2018-07-03T13:17:04.424Z,32.74
2018-07-03T13:19:32.064Z,33.04
2018-07-03T13:21:59.711Z,32.81
2018-07-03T13:24:28.281Z,32.55
2018-07-03T13:26:56.058Z,32.79
2018-07-03T13:29:23.762Z,32.90
2018-07-03T13:31:51.422Z,32.47
2018-07-03T13:34:19.108Z,32.68
2018-07-03T13:36:46.905Z,32.77
2018-07-03T13:39:14.598Z,33.21
2018-07-03T13:41:42.275Z,33.19
2018-07-03T13:44:10.053Z,32.78
2018-07-03T13:46:37.750Z,32.40
2018-07-03T13:49:05.422Z,32.42
2018-07-03T13:51:33.327Z,32.54
2018-07-03T13:54:01.008Z,32.62
2018-07-03T13:56:28.966Z,33.00
2018-07-03T13:58:57.096Z,33.30
2018-07-03T14:01:28.994Z,33.33
2018-07-03T14:03:56.987Z,33.29
2018-07-03T14:06:24.795Z,33.55
2018-07-03T14:08:52.459Z,33.55
2018-07-03T14:11:20.295Z,33.12
2018-07-03T14:13:47.959Z,33.50
2018-07-03T14:16:16.135Z,33.50
2018-07-03T14:18:43.874Z,33.33
2018-07-03T14:21:11.618Z,33.45
2018-07-03T14:23:39.416Z,33.51
2018-07-03T14:26:07.201Z,33.80
2018-07-03T14:28:34.827Z,33.94
2018-07-03T14:31:02.498Z,33.28
2018-07-03T14:33:30.199Z,33.19
2018-07-03T14:35:57.906Z,33.47
2018-07-03T14:38:25.681Z,33.52
2018-07-03T14:40:53.365Z,33.64
2018-07-03T14:43:21.063Z,33.46
2018-07-03T14:45:48.742Z,33.20
2018-07-03T14:48:16.487Z,32.96
2018-07-03T14:50:44.409Z,32.91
2018-07-03T14:53:12.179Z,33.06
2018-07-03T14:55:39.823Z,32.89
2018-07-03T14:58:07.507Z,32.74
2018-07-03T15:00:35.246Z,32.90
2018-07-03T15:03:03.045Z,32.90
2018-07-03T15:05:30.828Z,32.74
2018-07-03T15:07:58.631Z,32.58
2018-07-03T15:10:35.132Z,32.36
2018-07-03T15:13:04.281Z,32.35
2018-07-03T15:15:32.160Z,32.15
2018-07-03T15:17:59.907Z,31.78
2018-07-03T15:20:27.814Z,31.90
2018-07-03T15:23:02.396Z,32.29
2018-07-03T15:25:30.320Z,32.55
2018-07-03T15:27:58.171Z,32.33
2018-07-03T15:30:38.024Z,32.39
2018-07-03T15:33:05.747Z,32.34
2018-07-03T15:35:33.567Z,32.65
2018-07-03T15:38:01.583Z,32.74
2018-07-03T15:40:29.354Z,32.76
2018-07-03T15:42:57.107Z,32.50
2018-07-03T15:45:24.938Z,32.56
2018-07-03T15:47:53.319Z,32.66
2018-07-03T15:50:21.471Z,32.35
2018-07-03T15:52:49.461Z,32.30
2018-07-03T15:55:17.397Z,32.51
2018-07-03T15:57:45.176Z,32.41
2018-07-03T16:00:14.506Z,32.10
2018-07-03T16:02:59.743Z,32.00
2018-07-03T16:05:49.575Z,31.75
2018-07-03T16:08:38.173Z,31.89
2018-07-03T16:11:05.998Z,32.13
2018-07-03T16:13:33.899Z,32.27
2018-07-03T16:16:01.775Z,32.42
2018-07-03T16:18:29.652Z,32.57
2018-07-03T16:20:57.391Z,32.59
2018-07-03T16:23:25.980Z,32.54
2018-07-03T16:25:53.768Z,32.50
2018-07-03T16:28:21.835Z,32.60
2018-07-03T16:30:49.808Z,32.42
2018-07-03T16:33:17.678Z,32.31
2018-07-03T16:35:45.312Z,32.15
2018-07-03T16:38:13.273Z,31.99
2018-07-03T16:40:41.864Z,32.03
2018-07-03T16:43:09.671Z,32.20
2018-07-03T16:45:37.459Z,32.20
2018-07-03T16:48:05.195Z,32.06
2018-07-03T16:50:33.653Z,31.94
2018-07-03T16:53:01.817Z,32.04
2018-07-03T16:55:29.545Z,31.96
2018-07-03T16:57:57.521Z,31.98
2018-07-03T17:00:26.928Z,31.96
2018-07-03T17:02:54.739Z,31.82
2018-07-03T17:05:23.160Z,31.63
2018-07-03T17:07:51.268Z,31.71
2018-07-03T17:10:34.200Z,31.79
2018-07-03T17:13:02.161Z,31.66
2018-07-03T17:15:30.168Z,31.53
2018-07-03T17:17:58.014Z,31.63
2018-07-03T17:20:26.300Z,31.66
2018-07-03T17:22:54.335Z,31.68
2018-07-03T17:25:22.471Z,31.63
2018-07-03T17:27:50.676Z,31.61
2018-07-03T17:30:18.523Z,31.55
2018-07-03T17:32:46.247Z,31.55
2018-07-03T17:35:14.048Z,31.55
2018-07-03T17:37:41.808Z,31.24
2018-07-03T17:40:27.041Z,31.23
2018-07-03T17:44:20.947Z,31.28
2018-07-03T17:46:48.793Z,31.28
2018-07-03T17:49:17.271Z,31.36
2018-07-03T17:51:45.013Z,31.35
2018-07-03T17:54:13.081Z,31.30
2018-07-03T17:56:40.942Z,31.23
2018-07-03T17:59:08.837Z,31.13
2018-07-03T18:01:36.633Z,31.09
2018-07-03T18:04:04.432Z,30.98
2018-07-03T18:06:32.201Z,30.99
2018-07-03T18:09:00.872Z,30.92
2018-07-03T18:11:28.871Z,30.88
2018-07-03T18:13:56.598Z,30.83
2018-07-03T18:16:24.474Z,30.78
2018-07-03T18:18:58.260Z,30.69
2018-07-03T18:21:26.375Z,30.52
2018-07-03T18:23:54.419Z,30.44
2018-07-03T18:26:22.416Z,30.32
2018-07-03T18:28:50.590Z,30.33
2018-07-03T18:31:19.969Z,30.17
2018-07-03T18:33:47.735Z,30.03
2018-07-03T18:36:15.589Z,29.98
2018-07-03T18:38:43.897Z,29.94
2018-07-03T18:41:12.449Z,29.84
2018-07-03T18:43:40.613Z,29.72
2018-07-03T18:46:08.531Z,29.70
2018-07-03T18:48:36.662Z,29.63
2018-07-03T18:51:04.668Z,29.58
2018-07-03T18:53:32.825Z,29.52
2018-07-03T18:56:00.796Z,29.42
2018-07-03T18:58:28.586Z,29.32
2018-07-03T19:00:56.460Z,29.15
2018-07-03T19:03:24.359Z,29.06
2018-07-03T19:05:52.927Z,28.99
2018-07-03T19:08:20.807Z,28.91
2018-07-03T19:10:48.633Z,28.86
2018-07-03T19:13:16.391Z,28.80
2018-07-03T19:15:44.347Z,28.69
2018-07-03T19:18:12.156Z,28.58
2018-07-03T19:20:39.924Z,28.48
2018-07-03T19:23:07.744Z,28.41
2018-07-03T19:25:35.452Z,28.31
2018-07-03T19:28:03.204Z,28.27
2018-07-03T19:30:30.991Z,28.24
2018-07-03T19:33:00.802Z,28.17
2018-07-03T19:35:28.518Z,28.06
2018-07-03T19:37:56.221Z,27.98
2018-07-03T19:40:23.988Z,27.88
2018-07-03T19:43:30.848Z,27.80
2018-07-03T19:46:00.121Z,27.73
2018-07-03T19:48:28.019Z,27.68
2018-07-03T19:50:55.903Z,27.58
2018-07-03T19:53:23.638Z,27.43
2018-07-03T19:55:52.698Z,27.33
2018-07-03T19:58:20.705Z,27.21
2018-07-03T20:00:49.491Z,27.14
2018-07-03T20:03:17.259Z,27.05
2018-07-03T20:05:45.350Z,26.77
2018-07-03T20:08:13.189Z,26.77
2018-07-03T20:10:41.006Z,26.70
2018-07-03T20:13:11.250Z,26.57
2018-07-03T20:15:39.048Z,26.60
2018-07-03T20:18:08.235Z,26.55
2018-07-03T20:20:36.000Z,26.44
2018-07-03T20:23:03.794Z,26.26
2018-07-03T20:25:31.511Z,25.97
2018-07-03T20:27:59.611Z,25.97
2018-07-03T20:30:27.379Z,26.03
2018-07-03T20:32:55.043Z,26.03
2018-07-03T20:35:22.747Z,26.03
2018-07-03T20:38:02.030Z,26.02
2018-07-03T20:40:51.207Z,25.94
2018-07-03T20:43:19.215Z,25.86
2018-07-03T20:45:47.346Z,25.72
2018-07-03T20:48:15.067Z,25.66
2018-07-03T20:50:42.795Z,25.62
2018-07-03T20:53:10.590Z,25.56
2018-07-03T20:55:38.419Z,25.54
2018-07-03T20:58:06.127Z,25.56
2018-07-03T21:00:33.999Z,25.49
2018-07-03T21:03:01.708Z,25.43
2018-07-03T21:05:29.958Z,25.30
2018-07-03T21:07:57.830Z,25.18
2018-07-03T21:10:35.790Z,24.96
2018-07-03T21:13:03.392Z,24.98
2018-07-03T21:15:31.076Z,25.02
2018-07-03T21:17:58.926Z,25.02
2018-07-03T21:20:26.644Z,25.02
2018-07-03T21:22:54.318Z,24.95
2018-07-03T21:25:22.022Z,24.83
2018-07-03T21:27:49.610Z,24.80
2018-07-03T21:30:17.221Z,24.78
2018-07-03T21:32:45.369Z,24.76
2018-07-03T21:35:13.229Z,24.73
2018-07-03T21:37:40.861Z,24.54
2018-07-03T21:40:08.470Z,24.42
2018-07-03T21:42:36.458Z,24.26
2018-07-03T21:45:04.199Z,24.28
2018-07-03T21:47:31.827Z,24.40
2018-07-03T21:49:59.487Z,24.20
2018-07-03T21:52:27.210Z,24.08
2018-07-03T21:54:54.778Z,24.01
2018-07-03T21:57:22.362Z,24.14
2018-07-03T21:59:50.006Z,23.89
2018-07-03T22:02:17.803Z,23.65
2018-07-03T22:04:45.446Z,23.49
2018-07-03T22:07:13.039Z,23.42
2018-07-03T22:09:40.714Z,23.42
2018-07-03T22:12:08.355Z,23.33
2018-07-03T22:14:38.497Z,23.31
2018-07-03T22:17:06.466Z,23.38
2018-07-03T22:19:34.070Z,23.30
2018-07-03T22:22:01.683Z,23.20
2018-07-03T22:24:29.399Z,23.19
2018-07-03T22:26:57.010Z,23.17
2018-07-03T22:29:24.654Z,23.10
2018-07-03T22:31:52.218Z,23.07
2018-07-03T22:34:19.793Z,23.03
2018-07-03T22:36:47.367Z,23.03
2018-07-03T22:39:14.969Z,22.92
2018-07-03T22:41:42.557Z,22.85
2018-07-03T22:44:10.221Z,22.87
2018-07-03T22:46:37.866Z,22.86
2018-07-03T22:49:05.461Z,22.62
2018-07-03T22:51:33.098Z,22.48
2018-07-03T22:54:00.753Z,22.41
2018-07-03T22:56:28.485Z,22.54
2018-07-03T22:58:56.197Z,22.56
2018-07-03T23:01:23.795Z,22.48
2018-07-03T23:03:51.427Z,22.57
2018-07-03T23:06:19.018Z,22.75
2018-07-03T23:08:46.654Z,22.71
2018-07-03T23:11:14.357Z,22.75
2018-07-03T23:13:42.047Z,22.58
2018-07-03T23:16:09.695Z,22.60
2018-07-03T23:18:37.345Z,22.57
2018-07-03T23:21:05.610Z,22.56
2018-07-03T23:23:33.210Z,22.39
2018-07-03T23:26:00.878Z,22.25
2018-07-03T23:28:28.517Z,22.21
2018-07-03T23:30:56.137Z,22.23
2018-07-03T23:33:23.762Z,22.37
2018-07-03T23:35:51.446Z,22.52
2018-07-03T23:38:19.075Z,22.41
2018-07-03T23:40:46.822Z,22.51
2018-07-03T23:43:14.377Z,22.43
2018-07-03T23:45:48.974Z,22.17
2018-07-03T23:48:34.169Z,22.27
2018-07-03T23:51:19.952Z,22.50
2018-07-03T23:54:05.023Z,22.32
2018-07-03T23:56:49.965Z,22.34
2018-07-03T23:59:35.256Z,21.89
